sensor_id;sensor_type;location;lat;lon;timestamp;P1;durP1;ratioP1;P2;durP2;ratioP2
52790;SDS011;41253;46.856;-71.574;2022-08-05T00:02:10;6.25;;;5.65;;
52790;SDS011;41253;46.856;-71.574;2022-08-05T00:04:39;5.90;;;5.40;;
52790;SDS011;41253;46.856;-71.574;2022-08-05T00:07:05;6.68;;;5.40;;
52790;SDS011;41253;46.856;-71.574;2022-08-05T00:09:31;6.60;;;5.35;;
52790;SDS011;41253;46.856;-71.574;2022-08-05T00:11:57;6.25;;;5.60;;
52790;SDS011;41253;46.856;-71.574;2022-08-05T00:14:24;7.05;;;6.20;;
52790;SDS011;41253;46.856;-71.574;2022-08-05T00:16:50;6.25;;;5.65;;
52790;SDS011;41253;46.856;-71.574;2022-08-05T00:19:17;6.35;;;5.35;;
52790;SDS011;41253;46.856;-71.574;2022-08-05T00:21:43;5.68;;;5.18;;
52790;SDS011;41253;46.856;-71.574;2022-08-05T00:24:09;6.55;;;5.95;;
52790;SDS011;41253;46.856;-71.574;2022-08-05T00:26:35;5.78;;;5.28;;
52790;SDS011;41253;46.856;-71.574;2022-08-05T00:29:03;7.75;;;6.07;;
52790;SDS011;41253;46.856;-71.574;2022-08-05T00:31:29;6.38;;;5.35;;
52790;SDS011;41253;46.856;-71.574;2022-08-05T00:33:55;6.53;;;5.93;;
52790;SDS011;41253;46.856;-71.574;2022-08-05T00:36:25;6.47;;;5.68;;
52790;SDS011;41253;46.856;-71.574;2022-08-05T00:38:51;6.28;;;5.55;;
52790;SDS011;41253;46.856;-71.574;2022-08-05T00:41:31;5.85;;;5.35;;
52790;SDS011;41253;46.856;-71.574;2022-08-05T00:43:58;7.35;;;6.65;;
52790;SDS011;41253;46.856;-71.574;2022-08-05T00:46:25;6.95;;;6.22;;
52790;SDS011;41253;46.856;-71.574;2022-08-05T00:48:52;8.40;;;7.60;;
52790;SDS011;41253;46.856;-71.574;2022-08-05T00:51:19;8.43;;;6.80;;
52790;SDS011;41253;46.856;-71.574;2022-08-05T00:53:47;6.65;;;5.70;;
52790;SDS011;41253;46.856;-71.574;2022-08-05T00:56:14;6.28;;;5.68;;
52790;SDS011;41253;46.856;-71.574;2022-08-05T00:58:41;7.57;;;5.22;;
52790;SDS011;41253;46.856;-71.574;2022-08-05T01:01:08;6.75;;;5.97;;
52790;SDS011;41253;46.856;-71.574;2022-08-05T01:03:40;7.30;;;6.60;;
52790;SDS011;41253;46.856;-71.574;2022-08-05T01:06:07;6.90;;;6.20;;
52790;SDS011;41253;46.856;-71.574;2022-08-05T01:08:34;8.02;;;6.60;;
52790;SDS011;41253;46.856;-71.574;2022-08-05T01:11:05;10.10;;;6.88;;
52790;SDS011;41253;46.856;-71.574;2022-08-05T01:14:16;8.25;;;7.50;;
52790;SDS011;41253;46.856;-71.574;2022-08-05T01:16:39;7.85;;;7.05;;
52790;SDS011;41253;46.856;-71.574;2022-08-05T01:21:50;10.15;;;8.55;;
52790;SDS011;41253;46.856;-71.574;2022-08-05T01:27:23;6.57;;;5.97;;
52790;SDS011;41253;46.856;-71.574;2022-08-05T01:30:08;7.85;;;6.88;;
52790;SDS011;41253;46.856;-71.574;2022-08-05T01:32:36;7.00;;;6.40;;
52790;SDS011;41253;46.856;-71.574;2022-08-05T01:35:05;7.25;;;6.55;;
52790;SDS011;41253;46.856;-71.574;2022-08-05T01:37:38;6.53;;;5.72;;
52790;SDS011;41253;46.856;-71.574;2022-08-05T01:40:14;7.40;;;6.63;;
52790;SDS011;41253;46.856;-71.574;2022-08-05T01:42:43;7.82;;;6.22;;
52790;SDS011;41253;46.856;-71.574;2022-08-05T01:45:11;6.20;;;5.60;;
52790;SDS011;41253;46.856;-71.574;2022-08-05T01:47:39;6.85;;;6.15;;
52790;SDS011;41253;46.856;-71.574;2022-08-05T01:50:09;6.97;;;5.95;;
52790;SDS011;41253;46.856;-71.574;2022-08-05T01:52:38;7.80;;;7.10;;
52790;SDS011;41253;46.856;-71.574;2022-08-05T01:55:08;8.57;;;7.57;;
52790;SDS011;41253;46.856;-71.574;2022-08-05T01:57:39;11.38;;;8.57;;
52790;SDS011;41253;46.856;-71.574;2022-08-05T02:00:08;10.25;;;9.20;;
52790;SDS011;41253;46.856;-71.574;2022-08-05T02:02:36;9.00;;;7.97;;
52790;SDS011;41253;46.856;-71.574;2022-08-05T02:05:06;8.35;;;7.38;;
52790;SDS011;41253;46.856;-71.574;2022-08-05T02:07:36;8.80;;;7.97;;
52790;SDS011;41253;46.856;-71.574;2022-08-05T02:10:03;7.80;;;7.00;;
52790;SDS011;41253;46.856;-71.574;2022-08-05T02:15:16;7.32;;;6.63;;
52790;SDS011;41253;46.856;-71.574;2022-08-05T02:17:53;8.13;;;7.43;;
52790;SDS011;41253;46.856;-71.574;2022-08-05T02:20:22;8.00;;;6.75;;
52790;SDS011;41253;46.856;-71.574;2022-08-05T02:23:04;8.02;;;7.22;;
52790;SDS011;41253;46.856;-71.574;2022-08-05T02:25:34;9.75;;;8.75;;
52790;SDS011;41253;46.856;-71.574;2022-08-05T02:28:03;9.68;;;8.40;;
52790;SDS011;41253;46.856;-71.574;2022-08-05T02:30:40;9.35;;;8.10;;
52790;SDS011;41253;46.856;-71.574;2022-08-05T02:33:14;7.60;;;6.90;;
52790;SDS011;41253;46.856;-71.574;2022-08-05T02:35:43;8.02;;;6.93;;
52790;SDS011;41253;46.856;-71.574;2022-08-05T02:38:11;8.45;;;7.30;;
52790;SDS011;41253;46.856;-71.574;2022-08-05T02:40:40;9.20;;;7.80;;
52790;SDS011;41253;46.856;-71.574;2022-08-05T02:43:10;8.63;;;7.82;;
52790;SDS011;41253;46.856;-71.574;2022-08-05T02:45:39;6.85;;;6.25;;
52790;SDS011;41253;46.856;-71.574;2022-08-05T02:48:07;7.25;;;6.50;;
52790;SDS011;41253;46.856;-71.574;2022-08-05T02:50:35;7.50;;;6.65;;
52790;SDS011;41253;46.856;-71.574;2022-08-05T02:53:02;7.85;;;7.15;;
52790;SDS011;41253;46.856;-71.574;2022-08-05T02:55:30;10.25;;;8.77;;
52790;SDS011;41253;46.856;-71.574;2022-08-05T02:57:58;10.55;;;9.55;;
52790;SDS011;41253;46.856;-71.574;2022-08-05T03:00:25;10.77;;;9.68;;
52790;SDS011;41253;46.856;-71.574;2022-08-05T03:02:53;10.05;;;8.70;;
52790;SDS011;41253;46.856;-71.574;2022-08-05T03:05:22;10.40;;;9.25;;
52790;SDS011;41253;46.856;-71.574;2022-08-05T03:07:48;9.15;;;8.25;;
52790;SDS011;41253;46.856;-71.574;2022-08-05T03:10:15;7.72;;;6.97;;
52790;SDS011;41253;46.856;-71.574;2022-08-05T03:12:41;6.90;;;6.25;;
52790;SDS011;41253;46.856;-71.574;2022-08-05T03:15:08;7.57;;;6.93;;
52790;SDS011;41253;46.856;-71.574;2022-08-05T03:17:35;9.38;;;7.13;;
52790;SDS011;41253;46.856;-71.574;2022-08-05T03:20:03;8.45;;;6.70;;
52790;SDS011;41253;46.856;-71.574;2022-08-05T03:22:30;8.55;;;7.45;;
52790;SDS011;41253;46.856;-71.574;2022-08-05T03:24:57;7.75;;;5.95;;
52790;SDS011;41253;46.856;-71.574;2022-08-05T03:27:24;10.13;;;7.65;;
52790;SDS011;41253;46.856;-71.574;2022-08-05T03:29:50;8.57;;;7.78;;
52790;SDS011;41253;46.856;-71.574;2022-08-05T03:32:17;8.82;;;7.90;;
52790;SDS011;41253;46.856;-71.574;2022-08-05T03:34:45;8.60;;;7.30;;
52790;SDS011;41253;46.856;-71.574;2022-08-05T03:37:11;8.50;;;7.60;;
52790;SDS011;41253;46.856;-71.574;2022-08-05T03:39:49;9.48;;;8.52;;
52790;SDS011;41253;46.856;-71.574;2022-08-05T03:42:20;9.88;;;8.88;;
52790;SDS011;41253;46.856;-71.574;2022-08-05T03:44:47;9.60;;;8.70;;
52790;SDS011;41253;46.856;-71.574;2022-08-05T03:47:13;8.75;;;7.85;;
52790;SDS011;41253;46.856;-71.574;2022-08-05T03:49:39;14.20;;;10.13;;
52790;SDS011;41253;46.856;-71.574;2022-08-05T03:52:08;13.60;;;11.23;;
52790;SDS011;41253;46.856;-71.574;2022-08-05T03:54:50;12.60;;;11.40;;
52790;SDS011;41253;46.856;-71.574;2022-08-05T03:57:24;12.13;;;10.93;;
52790;SDS011;41253;46.856;-71.574;2022-08-05T03:59:59;11.30;;;10.10;;
52790;SDS011;41253;46.856;-71.574;2022-08-05T04:02:34;11.63;;;9.23;;
52790;SDS011;41253;46.856;-71.574;2022-08-05T04:05:03;9.38;;;8.45;;
52790;SDS011;41253;46.856;-71.574;2022-08-05T04:07:32;13.80;;;10.02;;
52790;SDS011;41253;46.856;-71.574;2022-08-05T04:09:59;10.43;;;9.35;;
52790;SDS011;41253;46.856;-71.574;2022-08-05T04:12:27;11.23;;;10.13;;
52790;SDS011;41253;46.856;-71.574;2022-08-05T04:14:53;10.77;;;8.70;;
52790;SDS011;41253;46.856;-71.574;2022-08-05T04:17:20;11.07;;;9.32;;
52790;SDS011;41253;46.856;-71.574;2022-08-05T04:19:47;10.10;;;8.70;;
52790;SDS011;41253;46.856;-71.574;2022-08-05T04:22:13;9.43;;;8.45;;
52790;SDS011;41253;46.856;-71.574;2022-08-05T04:24:41;9.52;;;8.43;;
52790;SDS011;41253;46.856;-71.574;2022-08-05T04:27:08;9.38;;;8.55;;
52790;SDS011;41253;46.856;-71.574;2022-08-05T04:29:36;8.88;;;8.07;;
52790;SDS011;41253;46.856;-71.574;2022-08-05T04:32:02;10.43;;;8.93;;
52790;SDS011;41253;46.856;-71.574;2022-08-05T04:34:29;10.15;;;9.18;;
52790;SDS011;41253;46.856;-71.574;2022-08-05T04:36:55;10.98;;;9.82;;
52790;SDS011;41253;46.856;-71.574;2022-08-05T04:39:21;12.57;;;11.00;;
52790;SDS011;41253;46.856;-71.574;2022-08-05T04:41:48;11.57;;;10.43;;
52790;SDS011;41253;46.856;-71.574;2022-08-05T04:44:16;13.60;;;12.27;;
52790;SDS011;41253;46.856;-71.574;2022-08-05T04:46:42;13.45;;;12.15;;
52790;SDS011;41253;46.856;-71.574;2022-08-05T04:49:09;14.80;;;12.82;;
52790;SDS011;41253;46.856;-71.574;2022-08-05T04:51:35;16.58;;;14.95;;
52790;SDS011;41253;46.856;-71.574;2022-08-05T04:54:02;18.48;;;16.60;;
52790;SDS011;41253;46.856;-71.574;2022-08-05T04:56:28;15.40;;;13.80;;
52790;SDS011;41253;46.856;-71.574;2022-08-05T04:58:55;14.43;;;12.63;;
52790;SDS011;41253;46.856;-71.574;2022-08-05T05:01:21;17.00;;;15.25;;
52790;SDS011;41253;46.856;-71.574;2022-08-05T05:03:47;19.80;;;17.13;;
52790;SDS011;41253;46.856;-71.574;2022-08-05T05:06:14;25.80;;;20.95;;
52790;SDS011;41253;46.856;-71.574;2022-08-05T05:08:40;16.33;;;14.45;;
52790;SDS011;41253;46.856;-71.574;2022-08-05T05:11:06;14.45;;;11.25;;
52790;SDS011;41253;46.856;-71.574;2022-08-05T05:13:33;14.82;;;13.25;;
52790;SDS011;41253;46.856;-71.574;2022-08-05T05:15:59;15.15;;;12.20;;
52790;SDS011;41253;46.856;-71.574;2022-08-05T05:18:26;10.50;;;9.05;;
52790;SDS011;41253;46.856;-71.574;2022-08-05T05:20:52;8.43;;;7.43;;
52790;SDS011;41253;46.856;-71.574;2022-08-05T05:23:18;9.45;;;7.78;;
52790;SDS011;41253;46.856;-71.574;2022-08-05T05:25:45;8.82;;;7.93;;
52790;SDS011;41253;46.856;-71.574;2022-08-05T05:28:11;6.72;;;6.13;;
52790;SDS011;41253;46.856;-71.574;2022-08-05T05:30:38;6.82;;;6.22;;
52790;SDS011;41253;46.856;-71.574;2022-08-05T05:33:05;5.93;;;5.40;;
52790;SDS011;41253;46.856;-71.574;2022-08-05T05:35:32;5.93;;;5.20;;
52790;SDS011;41253;46.856;-71.574;2022-08-05T05:37:59;5.75;;;4.97;;
52790;SDS011;41253;46.856;-71.574;2022-08-05T05:40:31;5.70;;;5.10;;
52790;SDS011;41253;46.856;-71.574;2022-08-05T05:42:58;6.43;;;4.70;;
52790;SDS011;41253;46.856;-71.574;2022-08-05T05:45:24;4.97;;;4.50;;
52790;SDS011;41253;46.856;-71.574;2022-08-05T05:47:51;6.30;;;5.40;;
52790;SDS011;41253;46.856;-71.574;2022-08-05T05:50:18;6.68;;;5.85;;
52790;SDS011;41253;46.856;-71.574;2022-08-05T05:52:45;6.20;;;5.60;;
52790;SDS011;41253;46.856;-71.574;2022-08-05T05:55:13;4.20;;;3.80;;
52790;SDS011;41253;46.856;-71.574;2022-08-05T05:57:41;4.93;;;4.43;;
52790;SDS011;41253;46.856;-71.574;2022-08-05T06:00:09;5.20;;;4.32;;
52790;SDS011;41253;46.856;-71.574;2022-08-05T06:02:38;4.32;;;3.92;;
52790;SDS011;41253;46.856;-71.574;2022-08-05T06:05:08;5.97;;;5.10;;
52790;SDS011;41253;46.856;-71.574;2022-08-05T06:07:36;7.32;;;5.32;;
52790;SDS011;41253;46.856;-71.574;2022-08-05T06:10:06;5.25;;;4.70;;
52790;SDS011;41253;46.856;-71.574;2022-08-05T06:12:34;7.03;;;4.85;;
52790;SDS011;41253;46.856;-71.574;2022-08-05T06:15:02;8.65;;;4.47;;
52790;SDS011;41253;46.856;-71.574;2022-08-05T06:17:29;3.88;;;3.58;;
52790;SDS011;41253;46.856;-71.574;2022-08-05T06:19:56;4.40;;;4.00;;
52790;SDS011;41253;46.856;-71.574;2022-08-05T06:22:24;4.53;;;4.05;;
52790;SDS011;41253;46.856;-71.574;2022-08-05T06:24:52;5.13;;;3.90;;
52790;SDS011;41253;46.856;-71.574;2022-08-05T06:27:18;5.20;;;4.70;;
52790;SDS011;41253;46.856;-71.574;2022-08-05T06:29:44;5.30;;;4.80;;
52790;SDS011;41253;46.856;-71.574;2022-08-05T06:32:11;4.43;;;3.72;;
52790;SDS011;41253;46.856;-71.574;2022-08-05T06:34:38;6.32;;;4.72;;
52790;SDS011;41253;46.856;-71.574;2022-08-05T06:37:05;6.90;;;5.40;;
52790;SDS011;41253;46.856;-71.574;2022-08-05T06:39:31;6.35;;;5.75;;
52790;SDS011;41253;46.856;-71.574;2022-08-05T06:41:58;5.85;;;4.50;;
52790;SDS011;41253;46.856;-71.574;2022-08-05T06:44:27;4.97;;;4.22;;
52790;SDS011;41253;46.856;-71.574;2022-08-05T06:46:54;8.43;;;5.60;;
52790;SDS011;41253;46.856;-71.574;2022-08-05T06:49:21;7.68;;;5.30;;
52790;SDS011;41253;46.856;-71.574;2022-08-05T06:51:48;6.88;;;5.55;;
52790;SDS011;41253;46.856;-71.574;2022-08-05T06:54:14;9.02;;;5.82;;
52790;SDS011;41253;46.856;-71.574;2022-08-05T06:56:40;10.73;;;5.50;;
52790;SDS011;41253;46.856;-71.574;2022-08-05T06:59:07;7.57;;;5.38;;
52790;SDS011;41253;46.856;-71.574;2022-08-05T07:01:34;5.95;;;5.10;;
52790;SDS011;41253;46.856;-71.574;2022-08-05T07:04:00;5.30;;;4.80;;
52790;SDS011;41253;46.856;-71.574;2022-08-05T07:06:27;7.65;;;5.00;;
52790;SDS011;41253;46.856;-71.574;2022-08-05T07:08:53;5.00;;;4.32;;
52790;SDS011;41253;46.856;-71.574;2022-08-05T07:11:20;8.90;;;4.85;;
52790;SDS011;41253;46.856;-71.574;2022-08-05T07:13:46;4.68;;;4.28;;
52790;SDS011;41253;46.856;-71.574;2022-08-05T07:16:30;5.90;;;4.10;;
52790;SDS011;41253;46.856;-71.574;2022-08-05T07:19:19;4.85;;;4.35;;
52790;SDS011;41253;46.856;-71.574;2022-08-05T07:21:47;5.95;;;4.35;;
52790;SDS011;41253;46.856;-71.574;2022-08-05T07:24:14;5.22;;;4.18;;
52790;SDS011;41253;46.856;-71.574;2022-08-05T07:26:41;7.63;;;4.90;;
52790;SDS011;41253;46.856;-71.574;2022-08-05T07:29:09;5.20;;;4.70;;
52790;SDS011;41253;46.856;-71.574;2022-08-05T07:31:36;4.55;;;4.15;;
52790;SDS011;41253;46.856;-71.574;2022-08-05T07:34:02;7.60;;;4.70;;
52790;SDS011;41253;46.856;-71.574;2022-08-05T07:36:29;5.20;;;4.18;;
52790;SDS011;41253;46.856;-71.574;2022-08-05T07:39:02;7.95;;;4.20;;
52790;SDS011;41253;46.856;-71.574;2022-08-05T07:41:29;5.95;;;4.20;;
52790;SDS011;41253;46.856;-71.574;2022-08-05T07:43:56;5.95;;;4.00;;
52790;SDS011;41253;46.856;-71.574;2022-08-05T07:46:27;7.13;;;4.20;;
52790;SDS011;41253;46.856;-71.574;2022-08-05T07:48:55;4.43;;;3.40;;
52790;SDS011;41253;46.856;-71.574;2022-08-05T07:51:23;3.95;;;3.17;;
52790;SDS011;41253;46.856;-71.574;2022-08-05T07:53:49;5.20;;;2.45;;
52790;SDS011;41253;46.856;-71.574;2022-08-05T07:56:15;2.35;;;2.03;;
52790;SDS011;41253;46.856;-71.574;2022-08-05T07:58:42;2.90;;;1.40;;
52790;SDS011;41253;46.856;-71.574;2022-08-05T08:01:08;2.50;;;1.35;;
52790;SDS011;41253;46.856;-71.574;2022-08-05T08:03:34;1.55;;;1.00;;
52790;SDS011;41253;46.856;-71.574;2022-08-05T08:06:01;4.15;;;1.25;;
52790;SDS011;41253;46.856;-71.574;2022-08-05T08:08:27;1.88;;;1.00;;
52790;SDS011;41253;46.856;-71.574;2022-08-05T08:10:54;2.65;;;1.00;;
52790;SDS011;41253;46.856;-71.574;2022-08-05T08:13:21;2.15;;;1.00;;
52790;SDS011;41253;46.856;-71.574;2022-08-05T08:15:47;2.67;;;1.27;;
52790;SDS011;41253;46.856;-71.574;2022-08-05T08:18:13;2.75;;;1.10;;
52790;SDS011;41253;46.856;-71.574;2022-08-05T08:20:40;4.30;;;0.93;;
52790;SDS011;41253;46.856;-71.574;2022-08-05T08:23:06;2.17;;;1.08;;
52790;SDS011;41253;46.856;-71.574;2022-08-05T08:25:33;1.63;;;0.93;;
52790;SDS011;41253;46.856;-71.574;2022-08-05T08:27:59;3.63;;;0.88;;
52790;SDS011;41253;46.856;-71.574;2022-08-05T08:30:26;1.52;;;0.90;;
52790;SDS011;41253;46.856;-71.574;2022-08-05T08:32:52;2.10;;;0.90;;
52790;SDS011;41253;46.856;-71.574;2022-08-05T08:35:18;3.08;;;0.93;;
52790;SDS011;41253;46.856;-71.574;2022-08-05T08:37:45;3.17;;;0.95;;
52790;SDS011;41253;46.856;-71.574;2022-08-05T08:40:11;0.95;;;0.73;;
52790;SDS011;41253;46.856;-71.574;2022-08-05T08:42:38;2.28;;;0.80;;
52790;SDS011;41253;46.856;-71.574;2022-08-05T08:45:06;1.38;;;0.90;;
52790;SDS011;41253;46.856;-71.574;2022-08-05T08:47:32;1.55;;;0.75;;
52790;SDS011;41253;46.856;-71.574;2022-08-05T08:50:00;1.33;;;0.40;;
52790;SDS011;41253;46.856;-71.574;2022-08-05T08:52:29;1.50;;;0.60;;
52790;SDS011;41253;46.856;-71.574;2022-08-05T08:54:57;2.85;;;0.68;;
52790;SDS011;41253;46.856;-71.574;2022-08-05T08:57:24;0.57;;;0.57;;
52790;SDS011;41253;46.856;-71.574;2022-08-05T08:59:51;0.93;;;0.52;;
52790;SDS011;41253;46.856;-71.574;2022-08-05T09:02:18;1.02;;;0.57;;
52790;SDS011;41253;46.856;-71.574;2022-08-05T09:04:45;1.00;;;0.75;;
52790;SDS011;41253;46.856;-71.574;2022-08-05T09:07:12;1.20;;;0.50;;
52790;SDS011;41253;46.856;-71.574;2022-08-05T09:09:39;1.23;;;0.70;;
52790;SDS011;41253;46.856;-71.574;2022-08-05T09:12:09;2.65;;;0.50;;
52790;SDS011;41253;46.856;-71.574;2022-08-05T09:14:35;0.88;;;0.50;;
52790;SDS011;41253;46.856;-71.574;2022-08-05T09:17:03;2.15;;;0.70;;
52790;SDS011;41253;46.856;-71.574;2022-08-05T09:19:31;3.42;;;0.43;;
52790;SDS011;41253;46.856;-71.574;2022-08-05T09:21:58;1.20;;;0.50;;
52790;SDS011;41253;46.856;-71.574;2022-08-05T09:24:24;2.80;;;0.63;;
52790;SDS011;41253;46.856;-71.574;2022-08-05T09:26:51;0.70;;;0.60;;
52790;SDS011;41253;46.856;-71.574;2022-08-05T09:29:22;2.80;;;0.57;;
52790;SDS011;41253;46.856;-71.574;2022-08-05T09:32:04;0.60;;;0.60;;
52790;SDS011;41253;46.856;-71.574;2022-08-05T09:34:45;4.70;;;0.60;;
52790;SDS011;41253;46.856;-71.574;2022-08-05T09:37:24;1.95;;;0.93;;
52790;SDS011;41253;46.856;-71.574;2022-08-05T09:39:51;2.15;;;0.70;;
52790;SDS011;41253;46.856;-71.574;2022-08-05T09:42:19;1.02;;;0.60;;
52790;SDS011;41253;46.856;-71.574;2022-08-05T09:44:47;1.67;;;0.80;;
52790;SDS011;41253;46.856;-71.574;2022-08-05T09:47:21;1.45;;;0.75;;
52790;SDS011;41253;46.856;-71.574;2022-08-05T09:49:50;1.05;;;0.55;;
52790;SDS011;41253;46.856;-71.574;2022-08-05T09:52:28;4.35;;;0.70;;
52790;SDS011;41253;46.856;-71.574;2022-08-05T09:55:00;3.60;;;0.70;;
52790;SDS011;41253;46.856;-71.574;2022-08-05T09:57:30;0.80;;;0.63;;
52790;SDS011;41253;46.856;-71.574;2022-08-05T10:00:03;1.23;;;0.90;;
52790;SDS011;41253;46.856;-71.574;2022-08-05T10:02:45;2.15;;;0.70;;
52790;SDS011;41253;46.856;-71.574;2022-08-05T10:10:30;5.53;;;0.90;;
52790;SDS011;41253;46.856;-71.574;2022-08-05T10:13:01;3.45;;;0.70;;
52790;SDS011;41253;46.856;-71.574;2022-08-05T10:15:32;0.70;;;0.63;;
52790;SDS011;41253;46.856;-71.574;2022-08-05T10:20:36;4.15;;;0.70;;
52790;SDS011;41253;46.856;-71.574;2022-08-05T10:23:14;1.73;;;0.88;;
52790;SDS011;41253;46.856;-71.574;2022-08-05T10:25:49;1.58;;;0.90;;
52790;SDS011;41253;46.856;-71.574;2022-08-05T10:28:16;1.83;;;0.70;;
52790;SDS011;41253;46.856;-71.574;2022-08-05T10:30:43;1.92;;;0.70;;
52790;SDS011;41253;46.856;-71.574;2022-08-05T10:33:09;0.82;;;0.63;;
52790;SDS011;41253;46.856;-71.574;2022-08-05T10:35:36;0.75;;;0.60;;
52790;SDS011;41253;46.856;-71.574;2022-08-05T10:38:03;1.02;;;0.70;;
52790;SDS011;41253;46.856;-71.574;2022-08-05T10:40:45;1.52;;;0.82;;
52790;SDS011;41253;46.856;-71.574;2022-08-05T10:43:16;1.17;;;0.90;;
52790;SDS011;41253;46.856;-71.574;2022-08-05T10:46:00;0.73;;;0.73;;
52790;SDS011;41253;46.856;-71.574;2022-08-05T10:48:32;1.48;;;0.90;;
52790;SDS011;41253;46.856;-71.574;2022-08-05T10:51:10;2.35;;;0.90;;
52790;SDS011;41253;46.856;-71.574;2022-08-05T10:56:16;4.47;;;0.90;;
52790;SDS011;41253;46.856;-71.574;2022-08-05T11:04:01;3.17;;;1.00;;
52790;SDS011;41253;46.856;-71.574;2022-08-05T11:07:21;5.30;;;0.98;;
52790;SDS011;41253;46.856;-71.574;2022-08-05T11:09:44;2.53;;;1.15;;
52790;SDS011;41253;46.856;-71.574;2022-08-05T11:15:16;3.40;;;0.82;;
52790;SDS011;41253;46.856;-71.574;2022-08-05T11:17:46;2.92;;;0.90;;
52790;SDS011;41253;46.856;-71.574;2022-08-05T11:20:33;4.43;;;1.20;;
52790;SDS011;41253;46.856;-71.574;2022-08-05T11:26:19;1.63;;;0.63;;
52790;SDS011;41253;46.856;-71.574;2022-08-05T11:28:48;4.07;;;0.80;;
52790;SDS011;41253;46.856;-71.574;2022-08-05T11:31:16;0.70;;;0.70;;
52790;SDS011;41253;46.856;-71.574;2022-08-05T11:36:17;4.13;;;0.93;;
52790;SDS011;41253;46.856;-71.574;2022-08-05T11:43:57;0.60;;;0.60;;
52790;SDS011;41253;46.856;-71.574;2022-08-05T11:48:52;3.10;;;0.80;;
52790;SDS011;41253;46.856;-71.574;2022-08-05T11:51:20;1.50;;;0.82;;
52790;SDS011;41253;46.856;-71.574;2022-08-05T11:53:47;0.75;;;0.75;;
52790;SDS011;41253;46.856;-71.574;2022-08-05T11:56:14;0.98;;;0.70;;
52790;SDS011;41253;46.856;-71.574;2022-08-05T11:58:42;2.90;;;0.70;;
52790;SDS011;41253;46.856;-71.574;2022-08-05T12:01:13;1.30;;;0.80;;
52790;SDS011;41253;46.856;-71.574;2022-08-05T12:03:51;1.75;;;0.85;;
52790;SDS011;41253;46.856;-71.574;2022-08-05T12:06:20;2.17;;;0.80;;
52790;SDS011;41253;46.856;-71.574;2022-08-05T12:08:49;2.45;;;0.93;;
52790;SDS011;41253;46.856;-71.574;2022-08-05T12:11:24;1.10;;;0.90;;
52790;SDS011;41253;46.856;-71.574;2022-08-05T12:13:55;2.30;;;1.00;;
52790;SDS011;41253;46.856;-71.574;2022-08-05T12:16:24;0.80;;;0.80;;
52790;SDS011;41253;46.856;-71.574;2022-08-05T12:18:53;1.25;;;0.80;;
52790;SDS011;41253;46.856;-71.574;2022-08-05T12:21:21;1.38;;;0.90;;
52790;SDS011;41253;46.856;-71.574;2022-08-05T12:26:33;2.35;;;0.70;;
52790;SDS011;41253;46.856;-71.574;2022-08-05T12:29:00;1.45;;;0.63;;
52790;SDS011;41253;46.856;-71.574;2022-08-05T12:31:32;1.70;;;0.65;;
52790;SDS011;41253;46.856;-71.574;2022-08-05T12:34:03;0.77;;;0.70;;
52790;SDS011;41253;46.856;-71.574;2022-08-05T12:36:31;0.77;;;0.60;;
52790;SDS011;41253;46.856;-71.574;2022-08-05T12:38:59;1.25;;;0.80;;
52790;SDS011;41253;46.856;-71.574;2022-08-05T12:41:32;0.88;;;0.65;;
52790;SDS011;41253;46.856;-71.574;2022-08-05T12:44:02;0.63;;;0.63;;
52790;SDS011;41253;46.856;-71.574;2022-08-05T12:46:30;2.58;;;0.70;;
52790;SDS011;41253;46.856;-71.574;2022-08-05T12:48:59;3.25;;;0.73;;
52790;SDS011;41253;46.856;-71.574;2022-08-05T12:51:29;2.25;;;0.70;;
52790;SDS011;41253;46.856;-71.574;2022-08-05T12:53:57;0.70;;;0.70;;
52790;SDS011;41253;46.856;-71.574;2022-08-05T12:56:26;1.23;;;0.70;;
52790;SDS011;41253;46.856;-71.574;2022-08-05T12:59:10;1.30;;;0.98;;
52790;SDS011;41253;46.856;-71.574;2022-08-05T13:01:38;1.45;;;0.70;;
52790;SDS011;41253;46.856;-71.574;2022-08-05T13:04:06;1.48;;;0.70;;
52790;SDS011;41253;46.856;-71.574;2022-08-05T13:06:35;0.70;;;0.60;;
52790;SDS011;41253;46.856;-71.574;2022-08-05T13:09:07;2.47;;;0.90;;
52790;SDS011;41253;46.856;-71.574;2022-08-05T13:11:36;1.02;;;0.70;;
52790;SDS011;41253;46.856;-71.574;2022-08-05T13:14:09;1.58;;;0.60;;
52790;SDS011;41253;46.856;-71.574;2022-08-05T13:16:55;1.85;;;0.50;;
52790;SDS011;41253;46.856;-71.574;2022-08-05T13:19:24;2.75;;;0.80;;
52790;SDS011;41253;46.856;-71.574;2022-08-05T13:21:51;0.82;;;0.80;;
52790;SDS011;41253;46.856;-71.574;2022-08-05T13:24:19;2.47;;;0.82;;
52790;SDS011;41253;46.856;-71.574;2022-08-05T13:26:48;0.77;;;0.57;;
52790;SDS011;41253;46.856;-71.574;2022-08-05T13:29:15;2.25;;;0.73;;
52790;SDS011;41253;46.856;-71.574;2022-08-05T13:31:42;1.13;;;0.63;;
52790;SDS011;41253;46.856;-71.574;2022-08-05T13:34:09;1.58;;;0.52;;
52790;SDS011;41253;46.856;-71.574;2022-08-05T13:36:35;1.63;;;0.70;;
52790;SDS011;41253;46.856;-71.574;2022-08-05T13:39:03;1.02;;;0.60;;
52790;SDS011;41253;46.856;-71.574;2022-08-05T13:41:30;1.02;;;0.70;;
52790;SDS011;41253;46.856;-71.574;2022-08-05T13:43:57;3.60;;;0.80;;
52790;SDS011;41253;46.856;-71.574;2022-08-05T13:46:23;1.15;;;0.60;;
52790;SDS011;41253;46.856;-71.574;2022-08-05T13:48:52;2.53;;;0.80;;
52790;SDS011;41253;46.856;-71.574;2022-08-05T13:51:25;1.25;;;0.70;;
52790;SDS011;41253;46.856;-71.574;2022-08-05T13:53:53;1.02;;;0.63;;
52790;SDS011;41253;46.856;-71.574;2022-08-05T13:56:20;2.15;;;0.60;;
52790;SDS011;41253;46.856;-71.574;2022-08-05T13:58:47;1.02;;;0.70;;
52790;SDS011;41253;46.856;-71.574;2022-08-05T14:01:13;2.25;;;0.75;;
52790;SDS011;41253;46.856;-71.574;2022-08-05T14:03:40;0.85;;;0.85;;
52790;SDS011;41253;46.856;-71.574;2022-08-05T14:06:06;1.63;;;0.88;;
52790;SDS011;41253;46.856;-71.574;2022-08-05T14:08:32;3.45;;;0.50;;
52790;SDS011;41253;46.856;-71.574;2022-08-05T14:10:59;1.10;;;0.68;;
52790;SDS011;41253;46.856;-71.574;2022-08-05T14:13:25;2.55;;;1.08;;
52790;SDS011;41253;46.856;-71.574;2022-08-05T14:15:52;1.42;;;0.80;;
52790;SDS011;41253;46.856;-71.574;2022-08-05T14:18:18;0.80;;;0.60;;
52790;SDS011;41253;46.856;-71.574;2022-08-05T14:20:45;1.52;;;0.82;;
52790;SDS011;41253;46.856;-71.574;2022-08-05T14:23:11;0.93;;;0.50;;
52790;SDS011;41253;46.856;-71.574;2022-08-05T14:25:38;0.90;;;0.70;;
52790;SDS011;41253;46.856;-71.574;2022-08-05T14:28:04;0.60;;;0.52;;
52790;SDS011;41253;46.856;-71.574;2022-08-05T14:30:31;0.77;;;0.60;;
52790;SDS011;41253;46.856;-71.574;2022-08-05T14:32:57;1.33;;;0.70;;
52790;SDS011;41253;46.856;-71.574;2022-08-05T14:35:23;1.95;;;0.60;;
52790;SDS011;41253;46.856;-71.574;2022-08-05T14:37:50;1.02;;;0.80;;
52790;SDS011;41253;46.856;-71.574;2022-08-05T14:40:16;0.90;;;0.50;;
52790;SDS011;41253;46.856;-71.574;2022-08-05T14:42:43;0.90;;;0.70;;
52790;SDS011;41253;46.856;-71.574;2022-08-05T14:45:09;1.02;;;0.75;;
52790;SDS011;41253;46.856;-71.574;2022-08-05T14:47:35;1.27;;;0.70;;
52790;SDS011;41253;46.856;-71.574;2022-08-05T14:50:02;0.85;;;0.50;;
52790;SDS011;41253;46.856;-71.574;2022-08-05T14:52:29;1.02;;;0.60;;
52790;SDS011;41253;46.856;-71.574;2022-08-05T14:54:55;0.60;;;0.60;;
52790;SDS011;41253;46.856;-71.574;2022-08-05T14:57:21;0.70;;;0.70;;
52790;SDS011;41253;46.856;-71.574;2022-08-05T14:59:48;2.05;;;0.63;;
52790;SDS011;41253;46.856;-71.574;2022-08-05T15:02:14;2.10;;;0.95;;
52790;SDS011;41253;46.856;-71.574;2022-08-05T15:04:40;1.80;;;0.68;;
52790;SDS011;41253;46.856;-71.574;2022-08-05T15:07:07;4.18;;;0.90;;
52790;SDS011;41253;46.856;-71.574;2022-08-05T15:09:33;2.15;;;1.00;;
52790;SDS011;41253;46.856;-71.574;2022-08-05T15:12:00;0.80;;;0.80;;